sensor_id;sensor_type;location;lat;lon;timestamp;pressure;altitude;pressure_sealevel;temperature;humidity
62978;BME280;49073;42.352;23.808;2024-02-21T00:02:34;95309.53;;;5.02;97.55
62978;BME280;49073;42.352;23.808;2024-02-21T00:05:34;95303.28;;;4.98;97.39
62978;BME280;49073;42.352;23.808;2024-02-21T00:08:39;95298.41;;;4.91;99.21
62978;BME280;49073;42.352;23.808;2024-02-21T00:11:39;95306.03;;;4.93;99.67
62978;BME280;49073;42.352;23.808;2024-02-21T00:14:40;95304.13;;;4.85;99.88
62978;BME280;49073;42.352;23.808;2024-02-21T00:17:43;95296.00;;;4.81;99.53
62978;BME280;49073;42.352;23.808;2024-02-21T00:20:44;95292.16;;;4.87;99.46
62978;BME280;49073;42.352;23.808;2024-02-21T00:23:45;95296.09;;;4.90;99.38
62978;BME280;49073;42.352;23.808;2024-02-21T00:26:50;95290.13;;;4.84;98.66
62978;BME280;49073;42.352;23.808;2024-02-21T00:29:51;95285.41;;;4.72;98.10
62978;BME280;49073;42.352;23.808;2024-02-21T00:32:51;95276.69;;;4.72;98.16
62978;BME280;49073;42.352;23.808;2024-02-21T00:35:52;95270.97;;;4.56;97.99
62978;BME280;49073;42.352;23.808;2024-02-21T00:38:52;95272.53;;;4.57;97.33
62978;BME280;49073;42.352;23.808;2024-02-21T00:41:53;95269.25;;;4.51;97.10
62978;BME280;49073;42.352;23.808;2024-02-21T00:44:53;95267.03;;;4.44;97.99
62978;BME280;49073;42.352;23.808;2024-02-21T00:47:55;95269.19;;;4.42;97.96
62978;BME280;49073;42.352;23.808;2024-02-21T00:50:55;95271.53;;;4.44;97.89
62978;BME280;49073;42.352;23.808;2024-02-21T00:53:56;95269.66;;;4.44;98.07
62978;BME280;49073;42.352;23.808;2024-02-21T00:56:57;95262.81;;;4.43;98.38
62978;BME280;49073;42.352;23.808;2024-02-21T00:59:57;95262.31;;;4.55;97.98
62978;BME280;49073;42.352;23.808;2024-02-21T01:02:58;95264.34;;;4.58;98.04
62978;BME280;49073;42.352;23.808;2024-02-21T01:05:58;95263.53;;;4.58;98.51
62978;BME280;49073;42.352;23.808;2024-02-21T01:08:59;95266.38;;;4.61;98.18
62978;BME280;49073;42.352;23.808;2024-02-21T01:11:59;95263.31;;;4.68;97.85
62978;BME280;49073;42.352;23.808;2024-02-21T01:15:00;95265.72;;;4.78;97.51
62978;BME280;49073;42.352;23.808;2024-02-21T01:18:01;95272.31;;;4.67;97.61
62978;BME280;49073;42.352;23.808;2024-02-21T01:21:01;95263.78;;;4.70;97.70
62978;BME280;49073;42.352;23.808;2024-02-21T01:24:03;95268.50;;;4.73;97.75
62978;BME280;49073;42.352;23.808;2024-02-21T01:27:04;95264.28;;;4.72;97.49
62978;BME280;49073;42.352;23.808;2024-02-21T01:30:05;95263.00;;;4.70;97.32
62978;BME280;49073;42.352;23.808;2024-02-21T01:33:06;95260.84;;;4.72;97.19
62978;BME280;49073;42.352;23.808;2024-02-21T01:36:06;95264.88;;;4.69;97.26
62978;BME280;49073;42.352;23.808;2024-02-21T01:39:07;95258.69;;;4.74;96.76
62978;BME280;49073;42.352;23.808;2024-02-21T01:42:08;95259.00;;;4.72;96.75
62978;BME280;49073;42.352;23.808;2024-02-21T01:45:09;95264.19;;;4.86;96.24
62978;BME280;49073;42.352;23.808;2024-02-21T01:48:10;95255.44;;;4.77;96.49
62978;BME280;49073;42.352;23.808;2024-02-21T01:51:11;95257.75;;;4.70;96.98
62978;BME280;49073;42.352;23.808;2024-02-21T01:54:13;95252.47;;;4.70;98.70
62978;BME280;49073;42.352;23.808;2024-02-21T01:57:16;95251.91;;;4.82;97.99
62978;BME280;49073;42.352;23.808;2024-02-21T02:00:17;95253.91;;;4.76;96.19
62978;BME280;49073;42.352;23.808;2024-02-21T02:03:18;95254.03;;;4.71;95.76
62978;BME280;49073;42.352;23.808;2024-02-21T02:06:18;95253.72;;;4.72;95.05
62978;BME280;49073;42.352;23.808;2024-02-21T02:09:19;95247.47;;;4.68;94.27
62978;BME280;49073;42.352;23.808;2024-02-21T02:12:20;95249.81;;;4.70;93.82
62978;BME280;49073;42.352;23.808;2024-02-21T02:15:21;95247.38;;;4.73;93.42
62978;BME280;49073;42.352;23.808;2024-02-21T02:18:22;95244.13;;;4.76;93.31
62978;BME280;49073;42.352;23.808;2024-02-21T02:21:29;95246.44;;;4.78;93.33
62978;BME280;49073;42.352;23.808;2024-02-21T02:24:29;95252.22;;;4.80;93.71
62978;BME280;49073;42.352;23.808;2024-02-21T02:27:30;95248.34;;;4.86;93.92
62978;BME280;49073;42.352;23.808;2024-02-21T02:30:34;95249.91;;;4.87;93.70
62978;BME280;49073;42.352;23.808;2024-02-21T02:33:36;95248.91;;;4.97;93.51
62978;BME280;49073;42.352;23.808;2024-02-21T02:36:36;95245.66;;;5.00;93.30
62978;BME280;49073;42.352;23.808;2024-02-21T02:39:37;95241.31;;;5.04;93.75
62978;BME280;49073;42.352;23.808;2024-02-21T02:42:37;95234.59;;;4.98;94.37
62978;BME280;49073;42.352;23.808;2024-02-21T02:45:38;95243.63;;;4.97;95.27
62978;BME280;49073;42.352;23.808;2024-02-21T02:48:39;95246.53;;;4.95;95.93
62978;BME280;49073;42.352;23.808;2024-02-21T02:51:43;95248.56;;;4.99;95.86
62978;BME280;49073;42.352;23.808;2024-02-21T02:54:45;95243.19;;;5.04;95.75
62978;BME280;49073;42.352;23.808;2024-02-21T02:57:52;95241.97;;;5.10;94.95
62978;BME280;49073;42.352;23.808;2024-02-21T03:00:52;95249.13;;;5.09;94.37
62978;BME280;49073;42.352;23.808;2024-02-21T03:03:53;95242.13;;;5.05;94.21
62978;BME280;49073;42.352;23.808;2024-02-21T03:06:54;95240.22;;;5.05;94.23
62978;BME280;49073;42.352;23.808;2024-02-21T03:09:54;95248.75;;;5.02;94.70
62978;BME280;49073;42.352;23.808;2024-02-21T03:12:55;95248.41;;;4.95;94.54
62978;BME280;49073;42.352;23.808;2024-02-21T03:15:56;95254.78;;;4.94;94.19
62978;BME280;49073;42.352;23.808;2024-02-21T03:18:56;95251.34;;;4.93;94.34
62978;BME280;49073;42.352;23.808;2024-02-21T03:21:57;95256.03;;;4.97;94.03
62978;BME280;49073;42.352;23.808;2024-02-21T03:24:58;95260.00;;;4.85;94.05
62978;BME280;49073;42.352;23.808;2024-02-21T03:27:58;95257.56;;;4.89;93.70
62978;BME280;49073;42.352;23.808;2024-02-21T03:30:59;95246.66;;;4.90;93.44
62978;BME280;49073;42.352;23.808;2024-02-21T03:33:59;95252.56;;;4.87;93.47
62978;BME280;49073;42.352;23.808;2024-02-21T03:37:00;95238.75;;;4.90;92.96
62978;BME280;49073;42.352;23.808;2024-02-21T03:40:01;95255.53;;;4.86;93.33
62978;BME280;49073;42.352;23.808;2024-02-21T03:43:02;95246.63;;;4.82;93.47
62978;BME280;49073;42.352;23.808;2024-02-21T03:46:03;95250.41;;;4.89;93.27
62978;BME280;49073;42.352;23.808;2024-02-21T03:49:04;95248.53;;;4.90;93.18
62978;BME280;49073;42.352;23.808;2024-02-21T03:52:04;95247.13;;;4.84;93.26
62978;BME280;49073;42.352;23.808;2024-02-21T03:55:05;95247.59;;;4.86;93.93
62978;BME280;49073;42.352;23.808;2024-02-21T03:58:07;95248.19;;;4.83;94.10
62978;BME280;49073;42.352;23.808;2024-02-21T04:01:08;95247.25;;;4.78;94.21
62978;BME280;49073;42.352;23.808;2024-02-21T04:04:10;95247.47;;;4.68;94.21
62978;BME280;49073;42.352;23.808;2024-02-21T04:07:10;95248.31;;;4.55;94.93
62978;BME280;49073;42.352;23.808;2024-02-21T04:10:12;95258.16;;;4.63;94.60
62978;BME280;49073;42.352;23.808;2024-02-21T04:13:12;95259.00;;;4.49;94.22
62978;BME280;49073;42.352;23.808;2024-02-21T04:16:13;95264.94;;;4.55;93.23
62978;BME280;49073;42.352;23.808;2024-02-21T04:19:13;95263.53;;;4.58;92.76
62978;BME280;49073;42.352;23.808;2024-02-21T04:22:14;95255.16;;;4.56;92.14
62978;BME280;49073;42.352;23.808;2024-02-21T04:25:15;95262.19;;;4.60;92.34
62978;BME280;49073;42.352;23.808;2024-02-21T04:28:16;95261.34;;;4.51;92.34
62978;BME280;49073;42.352;23.808;2024-02-21T04:31:16;95262.81;;;4.43;92.92
62978;BME280;49073;42.352;23.808;2024-02-21T04:34:17;95264.09;;;4.46;93.26
62978;BME280;49073;42.352;23.808;2024-02-21T04:37:17;95265.34;;;4.48;93.44
62978;BME280;49073;42.352;23.808;2024-02-21T04:40:19;95265.09;;;4.59;92.86
62978;BME280;49073;42.352;23.808;2024-02-21T04:43:19;95268.06;;;4.57;92.65
62978;BME280;49073;42.352;23.808;2024-02-21T04:46:21;95263.19;;;4.50;92.91
62978;BME280;49073;42.352;23.808;2024-02-21T04:49:21;95265.19;;;4.45;93.37
62978;BME280;49073;42.352;23.808;2024-02-21T04:52:22;95261.81;;;4.53;92.83
62978;BME280;49073;42.352;23.808;2024-02-21T04:55:22;95266.38;;;4.61;92.73
62978;BME280;49073;42.352;23.808;2024-02-21T04:58:23;95266.03;;;4.54;93.00
62978;BME280;49073;42.352;23.808;2024-02-21T05:01:23;95274.72;;;4.55;93.43
62978;BME280;49073;42.352;23.808;2024-02-21T05:04:25;95265.66;;;4.47;93.47
62978;BME280;49073;42.352;23.808;2024-02-21T05:07:25;95268.63;;;4.31;94.23
62978;BME280;49073;42.352;23.808;2024-02-21T05:10:26;95272.69;;;4.37;94.05
62978;BME280;49073;42.352;23.808;2024-02-21T05:13:26;95282.38;;;4.42;93.81
62978;BME280;49073;42.352;23.808;2024-02-21T05:16:27;95273.28;;;4.34;92.88
62978;BME280;49073;42.352;23.808;2024-02-21T05:19:27;95285.25;;;4.32;93.13
62978;BME280;49073;42.352;23.808;2024-02-21T05:22:28;95291.09;;;4.43;92.72
62978;BME280;49073;42.352;23.808;2024-02-21T05:25:28;95281.97;;;4.49;90.93
62978;BME280;49073;42.352;23.808;2024-02-21T05:28:29;95280.59;;;4.51;90.02
62978;BME280;49073;42.352;23.808;2024-02-21T05:34:53;95285.50;;;4.44;89.01
62978;BME280;49073;42.352;23.808;2024-02-21T05:37:53;95284.06;;;4.38;90.12
62978;BME280;49073;42.352;23.808;2024-02-21T05:40:54;95287.16;;;4.40;90.27
62978;BME280;49073;42.352;23.808;2024-02-21T05:43:54;95288.63;;;4.46;90.27
62978;BME280;49073;42.352;23.808;2024-02-21T05:46:55;95284.91;;;4.47;89.69
62978;BME280;49073;42.352;23.808;2024-02-21T05:49:55;95290.31;;;4.65;88.83
62978;BME280;49073;42.352;23.808;2024-02-21T05:52:56;95292.94;;;4.65;89.33
62978;BME280;49073;42.352;23.808;2024-02-21T05:55:56;95288.84;;;4.59;89.18
62978;BME280;49073;42.352;23.808;2024-02-21T05:58:57;95293.84;;;4.60;87.90
62978;BME280;49073;42.352;23.808;2024-02-21T06:01:58;95286.91;;;4.64;86.65
62978;BME280;49073;42.352;23.808;2024-02-21T06:04:59;95291.25;;;4.69;86.82
62978;BME280;49073;42.352;23.808;2024-02-21T06:07:59;95294.47;;;4.57;87.26
62978;BME280;49073;42.352;23.808;2024-02-21T06:11:00;95297.63;;;4.68;87.11
62978;BME280;49073;42.352;23.808;2024-02-21T06:14:00;95297.09;;;4.80;86.35
62978;BME280;49073;42.352;23.808;2024-02-21T06:17:01;95310.22;;;4.71;85.69
62978;BME280;49073;42.352;23.808;2024-02-21T06:20:02;95307.50;;;4.76;85.52
62978;BME280;49073;42.352;23.808;2024-02-21T06:23:02;95315.78;;;4.84;85.67
62978;BME280;49073;42.352;23.808;2024-02-21T06:26:03;95318.78;;;4.91;85.90
62978;BME280;49073;42.352;23.808;2024-02-21T06:29:04;95325.28;;;4.93;85.53
62978;BME280;49073;42.352;23.808;2024-02-21T06:32:04;95315.81;;;4.92;85.17
62978;BME280;49073;42.352;23.808;2024-02-21T06:35:05;95322.53;;;4.99;85.69
62978;BME280;49073;42.352;23.808;2024-02-21T06:38:06;95321.16;;;5.01;85.10
62978;BME280;49073;42.352;23.808;2024-02-21T06:41:15;95329.56;;;5.03;85.18
62978;BME280;49073;42.352;23.808;2024-02-21T06:44:16;95323.41;;;5.08;84.08
62978;BME280;49073;42.352;23.808;2024-02-21T06:47:16;95323.06;;;5.09;84.66
62978;BME280;49073;42.352;23.808;2024-02-21T06:50:17;95334.78;;;5.17;83.28
62978;BME280;49073;42.352;23.808;2024-02-21T06:53:18;95324.63;;;5.10;82.62
62978;BME280;49073;42.352;23.808;2024-02-21T06:56:18;95334.06;;;5.26;82.09
62978;BME280;49073;42.352;23.808;2024-02-21T06:59:19;95335.69;;;5.35;81.10
62978;BME280;49073;42.352;23.808;2024-02-21T07:02:19;95334.34;;;5.47;81.30
62978;BME280;49073;42.352;23.808;2024-02-21T07:05:20;95334.69;;;5.54;80.73
62978;BME280;49073;42.352;23.808;2024-02-21T07:08:21;95347.94;;;5.63;79.92
62978;BME280;49073;42.352;23.808;2024-02-21T07:11:22;95345.78;;;5.65;78.46
62978;BME280;49073;42.352;23.808;2024-02-21T07:14:22;95342.38;;;5.73;78.02
62978;BME280;49073;42.352;23.808;2024-02-21T07:17:23;95339.41;;;5.75;76.84
62978;BME280;49073;42.352;23.808;2024-02-21T07:20:23;95350.19;;;5.78;76.43
62978;BME280;49073;42.352;23.808;2024-02-21T07:23:24;95355.81;;;5.86;76.23
62978;BME280;49073;42.352;23.808;2024-02-21T07:26:24;95352.72;;;5.92;76.40
62978;BME280;49073;42.352;23.808;2024-02-21T07:29:25;95353.34;;;5.98;76.79
62978;BME280;49073;42.352;23.808;2024-02-21T07:32:25;95345.16;;;6.08;76.45
62978;BME280;49073;42.352;23.808;2024-02-21T07:35:26;95348.00;;;6.12;75.92
62978;BME280;49073;42.352;23.808;2024-02-21T07:38:27;95344.41;;;6.08;75.02
62978;BME280;49073;42.352;23.808;2024-02-21T07:41:27;95337.41;;;6.12;75.22
62978;BME280;49073;42.352;23.808;2024-02-21T07:44:31;95337.72;;;6.19;74.64
62978;BME280;49073;42.352;23.808;2024-02-21T07:47:32;95329.50;;;6.21;74.59
62978;BME280;49073;42.352;23.808;2024-02-21T07:50:33;95328.72;;;6.20;73.77
62978;BME280;49073;42.352;23.808;2024-02-21T07:53:34;95333.81;;;6.17;73.52
62978;BME280;49073;42.352;23.808;2024-02-21T07:56:34;95334.16;;;6.24;73.57
62978;BME280;49073;42.352;23.808;2024-02-21T07:59:35;95332.47;;;6.37;73.61
62978;BME280;49073;42.352;23.808;2024-02-21T08:02:35;95332.34;;;6.51;73.49
62978;BME280;49073;42.352;23.808;2024-02-21T08:05:36;95332.19;;;6.65;71.98
62978;BME280;49073;42.352;23.808;2024-02-21T08:08:36;95332.81;;;6.79;71.34
62978;BME280;49073;42.352;23.808;2024-02-21T08:11:37;95339.03;;;7.01;71.16
62978;BME280;49073;42.352;23.808;2024-02-21T08:14:38;95332.78;;;7.15;70.02
62978;BME280;49073;42.352;23.808;2024-02-21T08:17:39;95336.03;;;7.20;68.42
62978;BME280;49073;42.352;23.808;2024-02-21T08:20:39;95333.53;;;7.33;68.24
62978;BME280;49073;42.352;23.808;2024-02-21T08:23:40;95330.72;;;7.38;69.73
62978;BME280;49073;42.352;23.808;2024-02-21T08:26:42;95323.53;;;7.47;70.61
62978;BME280;49073;42.352;23.808;2024-02-21T08:29:43;95324.91;;;7.53;69.65
62978;BME280;49073;42.352;23.808;2024-02-21T08:32:43;95321.88;;;7.72;70.34
62978;BME280;49073;42.352;23.808;2024-02-21T08:35:44;95320.72;;;7.91;68.73
62978;BME280;49073;42.352;23.808;2024-02-21T08:38:45;95332.66;;;8.06;67.66
62978;BME280;49073;42.352;23.808;2024-02-21T08:41:46;95321.84;;;8.11;66.50
62978;BME280;49073;42.352;23.808;2024-02-21T08:44:46;95328.13;;;8.07;66.67
62978;BME280;49073;42.352;23.808;2024-02-21T08:47:47;95330.53;;;7.91;65.42
62978;BME280;49073;42.352;23.808;2024-02-21T08:50:48;95330.31;;;8.05;66.34
62978;BME280;49073;42.352;23.808;2024-02-21T08:53:49;95320.13;;;8.15;65.75
62978;BME280;49073;42.352;23.808;2024-02-21T08:56:50;95318.19;;;7.95;66.75
62978;BME280;49073;42.352;23.808;2024-02-21T08:59:50;95313.84;;;7.90;65.28
62978;BME280;49073;42.352;23.808;2024-02-21T09:02:51;95323.63;;;7.98;64.53
62978;BME280;49073;42.352;23.808;2024-02-21T09:05:51;95316.53;;;7.81;63.60
62978;BME280;49073;42.352;23.808;2024-02-21T09:08:52;95331.03;;;7.84;64.79
62978;BME280;49073;42.352;23.808;2024-02-21T09:11:52;95320.78;;;7.74;64.17
62978;BME280;49073;42.352;23.808;2024-02-21T09:14:53;95321.53;;;7.83;64.62
62978;BME280;49073;42.352;23.808;2024-02-21T09:17:53;95325.81;;;8.05;65.47
62978;BME280;49073;42.352;23.808;2024-02-21T09:20:54;95319.59;;;8.22;65.18
62978;BME280;49073;42.352;23.808;2024-02-21T09:23:55;95320.91;;;8.67;64.66
62978;BME280;49073;42.352;23.808;2024-02-21T09:26:55;95314.41;;;8.77;63.40
62978;BME280;49073;42.352;23.808;2024-02-21T09:29:56;95324.06;;;8.61;61.87
62978;BME280;49073;42.352;23.808;2024-02-21T09:32:56;95326.53;;;8.66;59.57
62978;BME280;49073;42.352;23.808;2024-02-21T09:35:59;95327.13;;;8.50;60.60
62978;BME280;49073;42.352;23.808;2024-02-21T09:39:00;95327.22;;;8.54;61.03
62978;BME280;49073;42.352;23.808;2024-02-21T09:42:07;95335.59;;;8.65;60.25
62978;BME280;49073;42.352;23.808;2024-02-21T09:45:22;95331.19;;;8.69;58.84
62978;BME280;49073;42.352;23.808;2024-02-21T09:48:35;95318.38;;;8.71;57.40
62978;BME280;49073;42.352;23.808;2024-02-21T09:51:41;95321.88;;;8.84;56.23
62978;BME280;49073;42.352;23.808;2024-02-21T09:54:44;95315.06;;;8.74;54.41
62978;BME280;49073;42.352;23.808;2024-02-21T09:57:45;95314.22;;;8.61;54.48
62978;BME280;49073;42.352;23.808;2024-02-21T10:00:45;95304.81;;;8.64;55.04
62978;BME280;49073;42.352;23.808;2024-02-21T10:03:46;95306.56;;;8.59;54.69
62978;BME280;49073;42.352;23.808;2024-02-21T10:06:47;95308.97;;;8.73;54.69
62978;BME280;49073;42.352;23.808;2024-02-21T10:09:48;95301.91;;;8.78;54.73
62978;BME280;49073;42.352;23.808;2024-02-21T10:12:51;95296.16;;;8.76;52.85
62978;BME280;49073;42.352;23.808;2024-02-21T10:16:12;95290.63;;;8.81;53.83
62978;BME280;49073;42.352;23.808;2024-02-21T10:19:19;95287.59;;;9.03;53.88
62978;BME280;49073;42.352;23.808;2024-02-21T10:22:20;95292.53;;;9.14;53.70
62978;BME280;49073;42.352;23.808;2024-02-21T10:25:25;95277.03;;;9.16;52.44
62978;BME280;49073;42.352;23.808;2024-02-21T10:28:26;95262.72;;;9.21;53.04
62978;BME280;49073;42.352;23.808;2024-02-21T10:31:27;95270.94;;;9.28;52.36
62978;BME280;49073;42.352;23.808;2024-02-21T10:34:28;95263.47;;;9.09;51.35
62978;BME280;49073;42.352;23.808;2024-02-21T10:37:30;95258.94;;;9.09;51.58
62978;BME280;49073;42.352;23.808;2024-02-21T10:40:30;95240.13;;;9.14;50.32
62978;BME280;49073;42.352;23.808;2024-02-21T10:43:38;95247.13;;;9.19;51.49
62978;BME280;49073;42.352;23.808;2024-02-21T10:46:43;95247.88;;;9.20;51.33
62978;BME280;49073;42.352;23.808;2024-02-21T10:49:44;95229.47;;;9.14;49.58
62978;BME280;49073;42.352;23.808;2024-02-21T10:52:48;95235.97;;;9.05;49.92
62978;BME280;49073;42.352;23.808;2024-02-21T10:56:00;95237.00;;;9.12;51.26
62978;BME280;49073;42.352;23.808;2024-02-21T10:59:04;95234.72;;;9.23;52.49
62978;BME280;49073;42.352;23.808;2024-02-21T11:02:05;95223.50;;;9.17;51.85
62978;BME280;49073;42.352;23.808;2024-02-21T11:05:06;95232.59;;;9.16;50.88
62978;BME280;49073;42.352;23.808;2024-02-21T11:08:07;95231.91;;;9.20;51.91
62978;BME280;49073;42.352;23.808;2024-02-21T11:11:08;95235.66;;;9.06;53.63
62978;BME280;49073;42.352;23.808;2024-02-21T11:14:20;95231.00;;;9.03;54.59
62978;BME280;49073;42.352;23.808;2024-02-21T11:17:21;95230.78;;;8.96;56.54
62978;BME280;49073;42.352;23.808;2024-02-21T11:20:37;95228.53;;;8.85;56.31
62978;BME280;49073;42.352;23.808;2024-02-21T11:23:38;95229.16;;;8.82;58.77
62978;BME280;49073;42.352;23.808;2024-02-21T11:26:40;95226.72;;;8.77;62.13
62978;BME280;49073;42.352;23.808;2024-02-21T11:29:47;95229.69;;;8.63;63.48
62978;BME280;49073;42.352;23.808;2024-02-21T11:32:49;95225.84;;;8.52;64.58
62978;BME280;49073;42.352;23.808;2024-02-21T11:35:49;95234.78;;;8.47;65.22
62978;BME280;49073;42.352;23.808;2024-02-21T11:38:51;95228.63;;;8.34;64.40
62978;BME280;49073;42.352;23.808;2024-02-21T11:42:07;95236.47;;;8.30;65.26
62978;BME280;49073;42.352;23.808;2024-02-21T11:45:10;95236.66;;;8.25;65.85
62978;BME280;49073;42.352;23.808;2024-02-21T11:48:11;95234.13;;;8.29;66.20
62978;BME280;49073;42.352;23.808;2024-02-21T11:51:21;95238.34;;;8.30;65.04
62978;BME280;49073;42.352;23.808;2024-02-21T11:54:21;95230.38;;;8.30;65.54
62978;BME280;49073;42.352;23.808;2024-02-21T11:57:22;95216.19;;;8.26;65.54
62978;BME280;49073;42.352;23.808;2024-02-21T12:00:23;95223.19;;;8.30;65.35
62978;BME280;49073;42.352;23.808;2024-02-21T12:03:26;95225.66;;;8.36;65.75
62978;BME280;49073;42.352;23.808;2024-02-21T12:06:27;95224.63;;;8.49;63.32
62978;BME280;49073;42.352;23.808;2024-02-21T12:09:29;95220.53;;;8.52;59.75
62978;BME280;49073;42.352;23.808;2024-02-21T12:12:29;95217.88;;;8.52;58.50
62978;BME280;49073;42.352;23.808;2024-02-21T12:15:31;95209.31;;;8.46;57.45
62978;BME280;49073;42.352;23.808;2024-02-21T12:18:31;95208.94;;;8.56;57.80
62978;BME280;49073;42.352;23.808;2024-02-21T12:21:35;95195.34;;;8.58;57.35
62978;BME280;49073;42.352;23.808;2024-02-21T12:24:39;95193.03;;;8.69;56.00
62978;BME280;49073;42.352;23.808;2024-02-21T12:27:42;95189.94;;;8.67;55.46
62978;BME280;49073;42.352;23.808;2024-02-21T12:30:43;95186.16;;;8.68;56.07
62978;BME280;49073;42.352;23.808;2024-02-21T12:33:44;95179.94;;;8.97;55.38
62978;BME280;49073;42.352;23.808;2024-02-21T12:36:45;95171.66;;;9.24;55.45
62978;BME280;49073;42.352;23.808;2024-02-21T12:39:49;95152.13;;;9.69;54.81
62978;BME280;49073;42.352;23.808;2024-02-21T12:42:49;95154.44;;;10.24;51.90
62978;BME280;49073;42.352;23.808;2024-02-21T12:45:51;95140.78;;;10.54;50.30
62978;BME280;49073;42.352;23.808;2024-02-21T12:48:52;95149.78;;;10.78;48.59
62978;BME280;49073;42.352;23.808;2024-02-21T12:51:53;95137.19;;;10.62;49.05
62978;BME280;49073;42.352;23.808;2024-02-21T12:54:54;95148.50;;;10.31;48.44
62978;BME280;49073;42.352;23.808;2024-02-21T12:57:56;95152.19;;;10.26;46.25
62978;BME280;49073;42.352;23.808;2024-02-21T13:01:03;95148.13;;;10.16;45.12
62978;BME280;49073;42.352;23.808;2024-02-21T13:04:04;95144.94;;;9.98;45.50
62978;BME280;49073;42.352;23.808;2024-02-21T13:07:05;95147.97;;;9.97;45.94
62978;BME280;49073;42.352;23.808;2024-02-21T13:10:07;95136.28;;;10.14;44.71
62978;BME280;49073;42.352;23.808;2024-02-21T13:13:08;95128.50;;;10.50;43.40
62978;BME280;49073;42.352;23.808;2024-02-21T13:16:09;95123.81;;;10.75;41.93
62978;BME280;49073;42.352;23.808;2024-02-21T13:19:10;95118.97;;;10.97;40.44
62978;BME280;49073;42.352;23.808;2024-02-21T13:22:11;95104.63;;;10.85;40.20
62978;BME280;49073;42.352;23.808;2024-02-21T13:25:11;95095.16;;;10.56;38.80
62978;BME280;49073;42.352;23.808;2024-02-21T13:28:15;95087.34;;;10.34;39.52
62978;BME280;49073;42.352;23.808;2024-02-21T13:31:16;95097.19;;;10.18;40.35
62978;BME280;49073;42.352;23.808;2024-02-21T13:34:17;95093.47;;;10.07;40.25
62978;BME280;49073;42.352;23.808;2024-02-21T13:37:18;95092.06;;;9.97;41.27
62978;BME280;49073;42.352;23.808;2024-02-21T13:40:18;95084.81;;;9.81;42.04
62978;BME280;49073;42.352;23.808;2024-02-21T13:43:19;95086.88;;;9.88;41.85
62978;BME280;49073;42.352;23.808;2024-02-21T13:46:20;95098.63;;;9.87;42.52
62978;BME280;49073;42.352;23.808;2024-02-21T13:49:20;95104.09;;;9.78;43.76
62978;BME280;49073;42.352;23.808;2024-02-21T13:52:21;95097.25;;;9.65;44.16
62978;BME280;49073;42.352;23.808;2024-02-21T13:55:21;95103.81;;;9.42;44.76
62978;BME280;49073;42.352;23.808;2024-02-21T13:58:26;95106.06;;;9.28;47.27
62978;BME280;49073;42.352;23.808;2024-02-21T14:01:26;95113.59;;;8.88;49.09
62978;BME280;49073;42.352;23.808;2024-02-21T14:04:30;95117.97;;;8.72;50.82
62978;BME280;49073;42.352;23.808;2024-02-21T14:07:30;95104.38;;;8.61;51.99
62978;BME280;49073;42.352;23.808;2024-02-21T14:10:31;95104.03;;;8.63;53.72
62978;BME280;49073;42.352;23.808;2024-02-21T14:13:32;95098.72;;;8.63;53.98
62978;BME280;49073;42.352;23.808;2024-02-21T14:16:33;95096.94;;;8.67;53.15
62978;BME280;49073;42.352;23.808;2024-02-21T14:19:34;95096.63;;;8.68;51.80
62978;BME280;49073;42.352;23.808;2024-02-21T14:22:34;95097.97;;;8.75;52.28
62978;BME280;49073;42.352;23.808;2024-02-21T14:25:37;95096.06;;;8.75;51.38
62978;BME280;49073;42.352;23.808;2024-02-21T14:28:39;95095.53;;;8.82;51.56
62978;BME280;49073;42.352;23.808;2024-02-21T14:31:40;95103.94;;;8.84;51.77
62978;BME280;49073;42.352;23.808;2024-02-21T14:34:41;95092.22;;;8.85;51.51
62978;BME280;49073;42.352;23.808;2024-02-21T14:37:42;95106.47;;;8.80;51.38
62978;BME280;49073;42.352;23.808;2024-02-21T14:40:42;95098.97;;;8.95;51.44
62978;BME280;49073;42.352;23.808;2024-02-21T14:43:43;95095.44;;;8.91;52.18
62978;BME280;49073;42.352;23.808;2024-02-21T14:46:44;95091.66;;;8.92;51.99
62978;BME280;49073;42.352;23.808;2024-02-21T14:49:45;95094.44;;;8.95;52.98
62978;BME280;49073;42.352;23.808;2024-02-21T14:52:45;95086.44;;;8.83;52.74
62978;BME280;49073;42.352;23.808;2024-02-21T14:55:46;95088.13;;;8.87;53.27
62978;BME280;49073;42.352;23.808;2024-02-21T14:58:47;95087.47;;;8.91;53.30
62978;BME280;49073;42.352;23.808;2024-02-21T15:01:47;95096.75;;;8.84;52.42
62978;BME280;49073;42.352;23.808;2024-02-21T15:04:48;95093.97;;;8.81;53.01
62978;BME280;49073;42.352;23.808;2024-02-21T15:07:48;95100.84;;;8.82;53.82
62978;BME280;49073;42.352;23.808;2024-02-21T15:10:49;95104.47;;;8.77;53.35
62978;BME280;49073;42.352;23.808;2024-02-21T15:13:50;95093.97;;;8.68;53.16
62978;BME280;49073;42.352;23.808;2024-02-21T15:16:51;95094.19;;;8.63;53.81
62978;BME280;49073;42.352;23.808;2024-02-21T15:19:51;95099.28;;;8.56;52.80
62978;BME280;49073;42.352;23.808;2024-02-21T15:22:55;95107.94;;;8.44;53.01
62978;BME280;49073;42.352;23.808;2024-02-21T15:25:55;95101.84;;;8.43;52.91
62978;BME280;49073;42.352;23.808;2024-02-21T15:28:56;95105.28;;;8.44;53.68
62978;BME280;49073;42.352;23.808;2024-02-21T15:31:57;95105.16;;;8.40;53.49
62978;BME280;49073;42.352;23.808;2024-02-21T15:34:58;95098.63;;;8.38;52.17
62978;BME280;49073;42.352;23.808;2024-02-21T15:37:58;95106.81;;;8.33;52.54
62978;BME280;49073;42.352;23.808;2024-02-21T15:40:59;95103.94;;;8.38;52.88
62978;BME280;49073;42.352;23.808;2024-02-21T15:44:00;95108.44;;;8.25;54.20
62978;BME280;49073;42.352;23.808;2024-02-21T15:47:01;95115.50;;;8.21;55.58
62978;BME280;49073;42.352;23.808;2024-02-21T15:50:03;95109.59;;;8.15;58.57
62978;BME280;49073;42.352;23.808;2024-02-21T15:53:04;95111.56;;;8.06;61.62
62978;BME280;49073;42.352;23.808;2024-02-21T15:56:04;95109.81;;;8.10;61.88
62978;BME280;49073;42.352;23.808;2024-02-21T15:59:05;95111.91;;;8.04;63.29
62978;BME280;49073;42.352;23.808;2024-02-21T16:02:06;95104.81;;;7.96;63.81
62978;BME280;49073;42.352;23.808;2024-02-21T16:05:10;95109.47;;;7.78;64.79